This is the latest recevied weather packets stored in our database for station/object KF6GPE. If no packets are shown the sender has not sent any weather packets the latest 10 day(s).
| Time | Temp. | Humidity | Pressure | Rain* | Wind** | Luminosity | Snow |
|---|---|---|---|---|---|---|---|
| 1777924804 | 15° C | 74% | 988.6 hPa | 0 mm | - | 1014 W/m² | - |
| 1777924204 | 15° C | 74% | 988.6 hPa | 0 mm | - | 1013 W/m² | - |
| 1777923603 | 15.56° C | 72% | 988.7 hPa | 0 mm | - | 1018 W/m² | - |
| 1777923003 | 15° C | 75% | 988.6 hPa | 0 mm | - | 1029 W/m² | - |
| 1777922403 | 14.44° C | 73% | 988.6 hPa | 0 mm | - | 1020 W/m² | - |
| 1777921802 | 14.44° C | 76% | 988.7 hPa | 0 mm | - | 1015 W/m² | - |
| 1777921205 | 13.89° C | 75% | 988.7 hPa | 0 mm | - | 1018 W/m² | - |
| 1777920603 | 13.89° C | 76% | 988.8 hPa | 0 mm | - | 1009 W/m² | - |
| 1777920003 | 13.89° C | 77% | 988.8 hPa | 0 mm | - | 1008 W/m² | - |
| 1777919402 | 13.89° C | 77% | 988.8 hPa | 0 mm | - | 1008 W/m² | - |
| 1777918803 | 13.89° C | 77% | 988.6 hPa | 0 mm | - | 1007 W/m² | - |
| 1777918203 | 13.89° C | 75% | 988.7 hPa | 0 mm | - | 1010 W/m² | - |
| 1777917003 | 13.89° C | 72% | 988.4 hPa | 0 mm | - | 1011 W/m² | - |
| 1777916402 | 14.44° C | 73% | 988.3 hPa | 0 mm | - | 1009 W/m² | - |
| 1777915803 | 13.89° C | 76% | 988.2 hPa | 0 mm | - | 1014 W/m² | - |
| 1777915203 | 13.89° C | 73% | 988.2 hPa | 0 mm | - | 1008 W/m² | - |
| 1777914604 | 13.89° C | 72% | 988.1 hPa | 0 mm | - | 1008 W/m² | - |
| 1777914004 | 13.89° C | 72% | 988 hPa | 0 mm | - | 1006 W/m² | - |
| 1777913403 | 13.89° C | 73% | 988 hPa | 0 mm | - | 1008 W/m² | - |
| 1777912803 | 13.33° C | 77% | 988 hPa | 0 mm | - | 1009 W/m² | - |
| 1777912203 | 12.78° C | 83% | 988.1 hPa | 0 mm | - | 1007 W/m² | - |
| 1777911603 | 11.67° C | 83% | 988.1 hPa | 0 mm | - | 1003 W/m² | - |
| 1777911003 | 11.11° C | 88% | 988.2 hPa | 0 mm | - | 1002 W/m² | - |
| 1777910403 | 10° C | 92% | 988.3 hPa | 0 mm | - | 1005 W/m² | - |
| 1777909802 | 8.89° C | 96% | 988.3 hPa | 0 mm | - | 1002 W/m² | - |
* Rain latest hour (hover to see other rain measurements)
** Current wind speed in m/s (hover to see current wind gust speed)